Taiban, NM

3:39 AM MST on December 21, 2014 (GMT -0700)
Melrose Gunnery Range | Change Station
CLOSE
Current Station
Airport
Location: Melrose Gunnery Range,
Elevation: 4350 ft
Nearby Weather Stations

Elev 4350 ft 34.30 °N, 103.80 °W | Updated 43 minutes ago

Partly Cloudy
Partly Cloudy
41 °F
Feels Like 33 °F
N
17
Wind Variable Wind from SW
Gusts 24 mph

Today
High -- | Low -- °F
--% Chance of Precip.
Yesterday
High -- | Low -- °F
Precip. -- in
6:58 AM 4:50 PM
Waning Crescent, 1% visible
Pressure 29.89 in
Visibility 10.0 miles
Clouds Clear
Windchill 33 °F
Dew Point 21 °F
Humidity 45%
Rainfall 0.00 in
Snow Depth Not available.
UV 0 out of 12
Pollen 6.40 out of 12
Air Quality Not available.
Flu Activity Not available.
METAR K4MR 210956Z AUTO 22015G21KT 10SM CLR 05/M06 A2993 RMK AO2 SLP122 T00511059

More Conditions Fewer Conditions

Pressure 29.89 in
Visibility 10.0 miles
Clouds Clear
Windchill 33 °F
Dew Point 21 °F
Humidity 45%
Rainfall 0.00 in
Snow Depth Not available.
UV 0 out of 12
Pollen 6.40 out of 12
Air Quality Not available.
Flu Activity Not available.
METAR K4MR 210956Z AUTO 22015G21KT 10SM CLR 05/M06 A2993 RMK AO2 SLP122 T00511059

More Conditions Fewer Conditions

10-Day Weather Forecast

Almanac

Astronomy

Dec. 21, 2014 Rise Set
Actual Time
Civil Twilight
Nautical Twilight
Astronomical Twilight
Moon
Length of Visible Light
Length of Day
Tomorrow will be .
, % of the Moon is Illuminated

Today's Extremes

State Highs State Lows

Community

WunderPhotos

Upload Photos

1,779,367 photos uploaded!

WunderBlogs® & News

Nearby

Air Quality

  Air Quality AQ Index Pollutant
Not available.

Snow Depth

Station Depth Elevation

Earthquake Activity

City Distance Mag. Time & Date
Minimum magnitude displayed is 2.5.

Coastal Water Temperatures

Place Temperature

Nearby Weather Stations